首页
METAR-TAF:

METAR-TAF

机场 :

Watertown, 紐約州, 美国

纬度: 43-59-31N, 经度: 076-01-18W, 海拔: 99米

当前天气观测

该预报发布于53分钟前的17:56 UTC
静风
温度 -14°C
湿度 60%
气压 1044 hPa
能見度: 16.1公里
天空无云

METAR: KART 171756Z AUTO 00000KT 10SM CLR M14/M20 A3082 RMK AO2 SLP451 T11391200 11139 21189 58016

时间: 13:49 (18:49 UTC)

预报

该预报发布于1小时和17分钟前的17:32 UTC
预报有效从17日的 18点(UTC)到 18日的 18点(UTC)
风速3节,风向多变
能見度: 10公里
少量云层高于25000英尺
从 17日的 2000点(UTC)
风速5节,风向西
能見度: 10公里
少量云层高于25000英尺
从 18日的 0700点(UTC)
风速3节,风向多变
能見度: 10公里
多云层高于20000英尺
从 18日的 1100点(UTC)
风速4节,风向
能見度: 10公里
阴天层高于10000英尺

TAF: KART 171732Z 1718/1818 VRB03KT P6SM FEW250 FM172000 27005KT P6SM FEW250 FM180700 VRB03KT P6SM BKN200 FM181100 10004KT P6SM OVC100

超过4000个机场的气象观测和天气预报(METAR&TAF报告)。

可查询的气象台以黄色和红色小点在地图上表示。

将鼠标移到小点上方,可查看气象台名称。

然后点击查看天气观测和预报。

如需切换地图:点击带黑十字的绿色按钮放大地图;点击带横线的绿色按钮缩小地图;或者点击绿色箭头查看邻近地区的地图。


METAR-TAF: